NKS2783 KSAN-KVCV
Flight info
| Callsign | NKS2783 |
|---|---|
| Flight time | N/A |
| Altitude | 16000 |
| Route | TANNR V186 PDZ/N0367F150 V442 APLES/N0362F140 |
| Aircraft | A319/M-SDE3FGHIRWY/LB1 |
Departure
| Time | 2026-05-05 22:35 |
|---|---|
| Airport | San Diego International Airport (KSAN) |
Arrival
| Time | N/A |
|---|---|
| Airport | Southern California Logistics Airport (KVCV) |
| Time | Latitude | Longitude | Altitude | Speed | Heading |
|---|---|---|---|---|---|
| 2026-05-05 22:08 | 32.73333 | -117.19902 | 26 ft | 0 kts | 116° |
| 2026-05-05 22:22 | 32.73341 | -117.19921 | 27 ft | 4 kts | 117° |
| 2026-05-05 22:23 | 32.73353 | -117.19950 | 27 ft | 4 kts | 112° |
| 2026-05-05 22:23 | 32.73359 | -117.19978 | 27 ft | 4 kts | 71° |
| 2026-05-05 22:23 | 32.73353 | -117.19989 | 27 ft | 1 kts | 26° |
| 2026-05-05 22:23 | 32.73350 | -117.19991 | 27 ft | 1 kts | 26° |
| 2026-05-05 22:24 | 32.73353 | -117.19989 | 27 ft | 1 kts | 26° |
| 2026-05-05 22:24 | 32.73355 | -117.19988 | 27 ft | 0 kts | 26° |
| 2026-05-05 22:25 | 32.73356 | -117.19987 | 27 ft | 1 kts | 26° |
| 2026-05-05 22:25 | 32.73380 | -117.19975 | 27 ft | 6 kts | 19° |
| 2026-05-05 22:25 | 32.73440 | -117.19957 | 27 ft | 11 kts | 14° |
| 2026-05-05 22:26 | 32.73473 | -117.19874 | 28 ft | 14 kts | 105° |
| 2026-05-05 22:26 | 32.73441 | -117.19745 | 27 ft | 19 kts | 105° |
| 2026-05-05 22:26 | 32.73411 | -117.19620 | 27 ft | 16 kts | 106° |
| 2026-05-05 22:26 | 32.73384 | -117.19509 | 27 ft | 16 kts | 106° |
| 2026-05-05 22:27 | 32.73360 | -117.19409 | 30 ft | 12 kts | 106° |
| 2026-05-05 22:27 | 32.73339 | -117.19321 | 25 ft | 12 kts | 106° |
| 2026-05-05 22:27 | 32.73319 | -117.19242 | 24 ft | 10 kts | 106° |
| 2026-05-05 22:27 | 32.73305 | -117.19181 | 24 ft | 9 kts | 106° |
| 2026-05-05 22:28 | 32.73282 | -117.19090 | 28 ft | 14 kts | 106° |
| 2026-05-05 22:28 | 32.73253 | -117.18971 | 29 ft | 13 kts | 105° |
| 2026-05-05 22:28 | 32.73224 | -117.18850 | 27 ft | 18 kts | 107° |
| 2026-05-05 22:28 | 32.73187 | -117.18695 | 28 ft | 22 kts | 106° |
| 2026-05-05 22:29 | 32.73152 | -117.18555 | 25 ft | 15 kts | 107° |
| 2026-05-05 22:29 | 32.73123 | -117.18432 | 24 ft | 18 kts | 107° |
| 2026-05-05 22:29 | 32.73087 | -117.18281 | 27 ft | 16 kts | 105° |
| 2026-05-05 22:29 | 32.73054 | -117.18151 | 21 ft | 13 kts | 107° |
| 2026-05-05 22:30 | 32.73029 | -117.18055 | 20 ft | 10 kts | 117° |
| 2026-05-05 22:30 | 32.72961 | -117.17990 | 21 ft | 15 kts | 145° |
| 2026-05-05 22:30 | 32.72905 | -117.17944 | 22 ft | 0 kts | 144° |
| 2026-05-05 22:32 | 32.72903 | -117.17942 | 22 ft | 2 kts | 144° |
| 2026-05-05 22:33 | 32.72881 | -117.17906 | 20 ft | 9 kts | 108° |
| 2026-05-05 22:33 | 32.72899 | -117.17814 | 19 ft | 13 kts | 72° |
| 2026-05-05 22:33 | 32.72928 | -117.17725 | 19 ft | 13 kts | 62° |
| 2026-05-05 22:33 | 32.72963 | -117.17633 | 23 ft | 10 kts | 69° |
| 2026-05-05 22:34 | 32.72999 | -117.17576 | 24 ft | 9 kts | 1° |
| 2026-05-05 22:34 | 32.73036 | -117.17652 | 22 ft | 18 kts | 286° |
| 2026-05-05 22:34 | 32.73133 | -117.18050 | 21 ft | 87 kts | 286° |
| 2026-05-05 22:34 | 32.73362 | -117.18986 | 202 ft | 133 kts | 286° |
| 2026-05-05 22:35 | 32.73614 | -117.20062 | 993 ft | 145 kts | 285° |
| 2026-05-05 22:35 | 32.73899 | -117.21320 | 1687 ft | 170 kts | 284° |
| 2026-05-05 22:35 | 32.74224 | -117.22776 | 2445 ft | 194 kts | 284° |
| 2026-05-05 22:35 | 32.74599 | -117.24426 | 3267 ft | 220 kts | 284° |
| 2026-05-05 22:36 | 32.75030 | -117.26283 | 4191 ft | 244 kts | 286° |
| 2026-05-05 22:36 | 32.75843 | -117.28106 | 5406 ft | 257 kts | 309° |
| 2026-05-05 22:36 | 32.77302 | -117.29384 | 6682 ft | 269 kts | 336° |
| 2026-05-05 22:36 | 32.79183 | -117.29670 | 7894 ft | 282 kts | 4° |